createdAt,value
2023-05-10T00:00:42.640Z,3.33
2023-05-10T00:01:46.705Z,3.20
2023-05-10T00:02:50.416Z,3.22
2023-05-10T00:03:52.296Z,3.05
2023-05-10T00:04:54.378Z,3.35
2023-05-10T00:05:56.160Z,3.15
2023-05-10T00:06:57.944Z,2.63
2023-05-10T00:07:59.945Z,3.13
2023-05-10T00:09:01.750Z,3.42
2023-05-10T00:10:03.638Z,3.15
2023-05-10T00:11:05.574Z,3.15
2023-05-10T00:12:07.861Z,3.20
2023-05-10T00:13:09.539Z,3.25
2023-05-10T00:14:11.249Z,3.10
2023-05-10T00:15:12.990Z,3.00
2023-05-10T00:16:14.982Z,2.92
2023-05-10T00:17:16.660Z,3.13
2023-05-10T00:18:18.579Z,3.17
2023-05-10T00:19:20.634Z,3.20
2023-05-10T00:20:22.458Z,2.80
2023-05-10T00:21:24.083Z,3.35
2023-05-10T00:22:25.757Z,2.78
2023-05-10T00:23:27.511Z,3.60
2023-05-10T00:24:29.187Z,3.20
2023-05-10T00:25:30.732Z,3.10
2023-05-10T00:26:32.508Z,3.08
2023-05-10T00:27:34.445Z,3.40
2023-05-10T00:28:36.147Z,3.40
2023-05-10T00:29:39.063Z,2.95
2023-05-10T00:30:40.642Z,3.05
2023-05-10T00:31:42.334Z,2.90
2023-05-10T00:32:45.025Z,3.92
2023-05-10T00:33:46.658Z,2.95
2023-05-10T00:34:48.404Z,3.05
2023-05-10T00:35:50.066Z,3.58
2023-05-10T00:36:51.811Z,3.42
2023-05-10T00:37:53.504Z,3.30
2023-05-10T00:38:55.912Z,3.33
2023-05-10T00:39:57.851Z,3.05
2023-05-10T00:40:59.797Z,3.20
2023-05-10T00:42:05.534Z,2.90
2023-05-10T00:43:07.694Z,3.38
2023-05-10T00:44:09.433Z,3.30
2023-05-10T00:45:11.232Z,2.83
2023-05-10T00:46:14.972Z,3.58
2023-05-10T00:47:17.754Z,2.90
2023-05-10T00:48:20.079Z,3.55
2023-05-10T00:49:22.281Z,3.20
2023-05-10T00:50:25.029Z,3.10
2023-05-10T00:51:27.304Z,3.28
2023-05-10T00:52:30.472Z,3.05
2023-05-10T00:53:35.443Z,3.42
2023-05-10T00:54:37.495Z,3.50
2023-05-10T00:55:39.299Z,3.95
2023-05-10T00:56:41.568Z,2.90
2023-05-10T00:57:43.686Z,3.10
2023-05-10T00:58:45.454Z,3.20
2023-05-10T00:59:50.137Z,3.30
2023-05-10T01:00:52.491Z,3.05
2023-05-10T01:01:54.526Z,3.00
2023-05-10T01:02:56.465Z,3.10
2023-05-10T01:03:59.020Z,3.20
2023-05-10T01:05:02.576Z,3.00
2023-05-10T01:06:04.993Z,2.97
2023-05-10T01:07:06.732Z,2.92
2023-05-10T01:08:12.518Z,3.40
2023-05-10T01:09:14.434Z,3.60
2023-05-10T01:10:16.888Z,3.17
2023-05-10T01:11:18.888Z,3.78
2023-05-10T01:12:20.814Z,3.30
2023-05-10T01:13:33.924Z,3.50
2023-05-10T01:14:37.318Z,3.20
2023-05-10T01:15:40.036Z,3.35
2023-05-10T01:16:43.357Z,3.00
2023-05-10T01:17:47.027Z,2.70
2023-05-10T01:18:50.769Z,3.10
2023-05-10T01:19:52.837Z,3.05
2023-05-10T01:21:13.203Z,3.63
2023-05-10T01:22:45.926Z,3.20
2023-05-10T01:24:07.056Z,2.97
2023-05-10T01:25:23.776Z,3.20
2023-05-10T01:27:02.501Z,3.60
2023-05-10T01:28:21.122Z,3.13
2023-05-10T01:29:35.168Z,2.75
2023-05-10T01:31:16.430Z,3.22
2023-05-10T01:32:20.767Z,2.63
2023-05-10T01:33:31.231Z,3.20
2023-05-10T01:34:39.765Z,2.97
2023-05-10T01:35:47.618Z,2.95
2023-05-10T01:36:56.616Z,2.80
2023-05-10T01:38:10.553Z,3.20
2023-05-10T01:39:26.684Z,3.03
2023-05-10T01:40:40.289Z,3.13
2023-05-10T01:41:57.480Z,3.15
2023-05-10T01:43:09.590Z,2.83
2023-05-10T01:44:24.629Z,2.95
2023-05-10T01:45:40.051Z,3.22
2023-05-10T01:46:41.915Z,3.00
2023-05-10T01:47:45.532Z,3.20
2023-05-10T01:48:55.299Z,2.80
2023-05-10T01:49:59.353Z,3.00
2023-05-10T01:51:01.126Z,3.17
2023-05-10T01:52:09.551Z,3.17
2023-05-10T01:53:13.864Z,3.25
2023-05-10T01:54:20.325Z,3.45
2023-05-10T01:55:27.896Z,3.40
2023-05-10T01:56:33.335Z,3.35
2023-05-10T01:57:37.941Z,3.30
2023-05-10T01:58:43.348Z,3.05
2023-05-10T01:59:49.015Z,3.10
2023-05-10T02:00:53.316Z,3.10
2023-05-10T02:01:58.041Z,3.38
2023-05-10T02:03:03.486Z,3.03
2023-05-10T02:04:07.236Z,2.88
2023-05-10T02:05:10.281Z,2.95
2023-05-10T02:06:15.840Z,3.15
2023-05-10T02:07:18.571Z,2.60
2023-05-10T02:08:22.975Z,2.75
2023-05-10T02:09:26.466Z,2.92
2023-05-10T02:10:30.775Z,3.08
2023-05-10T02:11:33.601Z,3.25
2023-05-10T02:12:54.834Z,3.00
2023-05-10T02:13:58.410Z,3.05
2023-05-10T02:15:06.519Z,3.05
2023-05-10T02:16:08.393Z,3.25
2023-05-10T02:17:10.964Z,3.50
2023-05-10T02:18:14.693Z,3.55
2023-05-10T02:19:18.041Z,2.78
2023-05-10T02:20:20.404Z,2.90
2023-05-10T02:21:24.542Z,3.10
2023-05-10T02:22:28.584Z,2.80
2023-05-10T02:23:31.520Z,3.00
2023-05-10T02:24:34.677Z,2.85
2023-05-10T02:25:37.788Z,3.60
2023-05-10T02:26:40.327Z,3.08
2023-05-10T02:27:44.526Z,3.00
2023-05-10T02:28:46.757Z,3.15
2023-05-10T02:29:49.909Z,3.17
2023-05-10T02:30:53.320Z,3.05
2023-05-10T02:31:56.664Z,3.40
2023-05-10T02:33:00.667Z,3.40
2023-05-10T02:34:04.875Z,3.38
2023-05-10T02:35:08.338Z,3.55
2023-05-10T02:36:11.691Z,3.42
2023-05-10T02:37:15.546Z,3.30
2023-05-10T02:38:20.164Z,3.53
2023-05-10T02:39:22.689Z,3.60
2023-05-10T02:40:28.086Z,3.08
2023-05-10T02:41:33.740Z,3.55
2023-05-10T02:42:38.101Z,3.22
2023-05-10T02:43:41.711Z,3.78
2023-05-10T02:44:46.502Z,3.35
2023-05-10T02:45:50.419Z,3.33
2023-05-10T02:46:52.095Z,3.25
2023-05-10T02:47:53.836Z,3.28
2023-05-10T02:48:56.147Z,3.47
2023-05-10T02:49:58.121Z,3.38
2023-05-10T02:51:05.669Z,3.40
2023-05-10T02:52:10.037Z,3.63
2023-05-10T02:53:16.662Z,3.20
2023-05-10T02:54:28.461Z,3.30
2023-05-10T02:55:36.498Z,3.25
2023-05-10T02:56:43.807Z,3.13
2023-05-10T02:57:53.507Z,3.33
2023-05-10T02:58:55.954Z,3.22
2023-05-10T02:59:57.820Z,3.28
2023-05-10T03:01:01.660Z,3.20
2023-05-10T03:02:04.143Z,3.70
2023-05-10T03:03:06.709Z,4.03
2023-05-10T03:04:08.798Z,3.40
2023-05-10T03:05:10.493Z,2.95
2023-05-10T03:06:12.567Z,3.70
2023-05-10T03:07:14.640Z,3.72
2023-05-10T03:08:16.236Z,3.50
2023-05-10T03:09:18.518Z,3.20
2023-05-10T03:10:27.782Z,3.55
2023-05-10T03:11:56.388Z,3.00
2023-05-10T03:13:28.080Z,4.38
2023-05-10T03:14:39.391Z,3.58
2023-05-10T03:16:05.114Z,3.50
2023-05-10T03:17:42.015Z,3.45
2023-05-10T03:18:54.756Z,3.53
2023-05-10T03:19:58.844Z,3.30
2023-05-10T03:21:07.054Z,3.42
2023-05-10T03:22:13.780Z,3.67
2023-05-10T03:23:17.998Z,3.70
2023-05-10T03:24:23.041Z,3.70
2023-05-10T03:25:25.486Z,3.53
2023-05-10T03:26:29.224Z,3.30
2023-05-10T03:27:42.701Z,3.65
2023-05-10T03:28:46.568Z,3.55
2023-05-10T03:29:49.057Z,3.90
2023-05-10T03:30:53.381Z,3.47
2023-05-10T03:31:55.345Z,3.80
2023-05-10T03:32:57.971Z,3.50
2023-05-10T03:34:00.064Z,3.85
2023-05-10T03:35:10.651Z,3.20
2023-05-10T03:36:12.953Z,3.67
2023-05-10T03:37:15.097Z,3.40
2023-05-10T03:38:16.974Z,3.40
2023-05-10T03:39:19.174Z,3.63
2023-05-10T03:40:27.761Z,3.42
2023-05-10T03:41:30.321Z,3.53
2023-05-10T03:42:32.529Z,3.33
2023-05-10T03:43:34.099Z,3.35
2023-05-10T03:44:35.726Z,3.83
2023-05-10T03:45:38.008Z,4.00
2023-05-10T03:46:40.109Z,3.75
2023-05-10T03:47:41.911Z,3.67
2023-05-10T03:48:43.636Z,3.42
2023-05-10T03:49:45.313Z,3.28
2023-05-10T03:50:48.586Z,4.07
2023-05-10T03:51:50.223Z,3.65
2023-05-10T03:52:54.574Z,3.60
2023-05-10T03:53:56.607Z,3.80
2023-05-10T03:54:58.532Z,3.40
2023-05-10T03:56:00.154Z,3.47
2023-05-10T03:57:02.129Z,3.38
2023-05-10T03:58:07.720Z,3.30
2023-05-10T03:59:11.951Z,3.25
2023-05-10T04:00:14.644Z,3.90
2023-05-10T04:01:16.353Z,3.70
2023-05-10T04:02:18.026Z,3.70
2023-05-10T04:03:23.144Z,4.00
2023-05-10T04:04:25.175Z,3.60
2023-05-10T04:05:26.888Z,3.65
2023-05-10T04:06:28.585Z,3.70
2023-05-10T04:07:31.083Z,3.92
2023-05-10T04:08:32.928Z,4.18
2023-05-10T04:09:34.647Z,3.83
2023-05-10T04:10:36.640Z,4.30
2023-05-10T04:11:38.426Z,3.72
2023-05-10T04:12:40.174Z,3.63
2023-05-10T04:13:42.154Z,3.70
2023-05-10T04:14:43.737Z,3.72
2023-05-10T04:15:45.549Z,4.28
2023-05-10T04:16:47.257Z,3.80
2023-05-10T04:17:49.130Z,3.80
2023-05-10T04:18:50.736Z,3.92
2023-05-10T04:19:55.404Z,3.97
2023-05-10T04:20:57.427Z,4.00
2023-05-10T04:21:59.582Z,3.70
2023-05-10T04:23:01.195Z,3.58
2023-05-10T04:24:03.213Z,3.72
2023-05-10T04:25:05.721Z,4.00
2023-05-10T04:26:07.967Z,3.58
2023-05-10T04:27:09.693Z,3.83
2023-05-10T04:28:11.897Z,3.47
2023-05-10T04:29:13.522Z,3.65
2023-05-10T04:30:15.352Z,4.28
2023-05-10T04:31:17.141Z,3.92
2023-05-10T04:32:18.815Z,3.72
2023-05-10T04:33:20.408Z,3.85
2023-05-10T04:34:22.353Z,3.80
2023-05-10T04:35:23.966Z,3.40
2023-05-10T04:36:25.562Z,3.80
2023-05-10T04:37:27.368Z,3.65
2023-05-10T04:38:29.402Z,4.40
2023-05-10T04:39:31.066Z,3.83
2023-05-10T04:40:33.013Z,4.50
2023-05-10T04:41:36.141Z,5.05
2023-05-10T04:42:37.812Z,4.32
2023-05-10T04:43:40.576Z,3.42
2023-05-10T04:44:42.492Z,3.63
2023-05-10T04:45:44.110Z,3.50
2023-05-10T04:46:45.790Z,3.88
2023-05-10T04:47:47.701Z,3.80
2023-05-10T04:48:49.827Z,4.05
2023-05-10T04:49:51.774Z,3.42
2023-05-10T04:50:53.515Z,3.72
2023-05-10T04:51:55.210Z,3.72
2023-05-10T04:52:56.852Z,3.80
2023-05-10T04:54:05.849Z,4.00
2023-05-10T04:55:10.530Z,4.43
2023-05-10T04:56:12.094Z,3.83
2023-05-10T04:57:13.869Z,3.60
2023-05-10T04:58:15.443Z,4.25
2023-05-10T04:59:17.232Z,3.85
2023-05-10T05:00:19.590Z,3.88
2023-05-10T05:01:21.328Z,3.65
2023-05-10T05:02:23.199Z,4.00
2023-05-10T05:03:25.025Z,4.30
2023-05-10T05:04:26.797Z,3.80
2023-05-10T05:05:28.469Z,3.42
2023-05-10T05:06:30.120Z,3.97
2023-05-10T05:07:31.796Z,4.25
2023-05-10T05:08:33.491Z,4.20
2023-05-10T05:09:35.452Z,4.13
2023-05-10T05:10:37.043Z,4.03
2023-05-10T05:11:39.356Z,4.13
2023-05-10T05:12:41.000Z,4.55
2023-05-10T05:13:42.955Z,4.32
2023-05-10T05:14:44.627Z,4.15
2023-05-10T05:15:47.066Z,4.25
2023-05-10T05:16:48.842Z,4.30
2023-05-10T05:17:50.424Z,4.50
2023-05-10T05:18:52.087Z,3.83
2023-05-10T05:19:54.614Z,4.45
2023-05-10T05:20:56.394Z,4.10
2023-05-10T05:21:58.026Z,3.50
2023-05-10T05:23:00.278Z,3.80
2023-05-10T05:24:01.971Z,4.20
2023-05-10T05:25:04.446Z,3.80
2023-05-10T05:26:06.003Z,4.20
2023-05-10T05:27:08.141Z,3.60
2023-05-10T05:28:10.022Z,4.05
2023-05-10T05:29:11.864Z,3.63
2023-05-10T05:30:13.714Z,4.15
2023-05-10T05:31:15.715Z,4.20
2023-05-10T05:32:17.580Z,3.80
2023-05-10T05:33:19.614Z,4.32
2023-05-10T05:34:21.535Z,4.32
2023-05-10T05:35:23.382Z,3.80
2023-05-10T05:36:25.349Z,4.20
2023-05-10T05:37:27.543Z,4.03
2023-05-10T05:38:29.216Z,4.18
2023-05-10T05:39:30.772Z,4.57
2023-05-10T05:40:32.717Z,4.40
2023-05-10T05:41:34.521Z,3.90
2023-05-10T05:42:36.394Z,4.50
2023-05-10T05:43:38.629Z,4.50
2023-05-10T05:44:41.262Z,4.00
2023-05-10T05:45:43.010Z,4.20
2023-05-10T05:46:44.799Z,4.32
2023-05-10T05:47:46.674Z,4.40
2023-05-10T05:48:48.476Z,4.03
2023-05-10T05:49:50.232Z,3.80
2023-05-10T05:50:56.040Z,3.60
2023-05-10T05:52:04.546Z,3.70
2023-05-10T05:53:06.213Z,4.07
2023-05-10T05:54:09.824Z,4.47
2023-05-10T05:55:11.575Z,3.83
2023-05-10T05:56:13.356Z,3.97
2023-05-10T05:57:14.953Z,4.07
2023-05-10T05:58:16.610Z,3.70
2023-05-10T05:59:18.616Z,4.00
2023-05-10T06:00:20.394Z,3.40
2023-05-10T06:01:22.046Z,3.78
2023-05-10T06:02:23.721Z,3.58
2023-05-10T06:03:25.429Z,3.95
2023-05-10T06:04:27.272Z,3.80
2023-05-10T06:05:28.952Z,4.30
2023-05-10T06:06:30.539Z,3.58
2023-05-10T06:07:32.235Z,3.80
2023-05-10T06:08:34.914Z,3.58
2023-05-10T06:09:36.776Z,3.92
2023-05-10T06:10:38.797Z,4.10
2023-05-10T06:11:40.526Z,3.45
2023-05-10T06:12:42.688Z,4.13
2023-05-10T06:13:44.622Z,4.20
2023-05-10T06:14:46.515Z,4.43
2023-05-10T06:15:48.319Z,4.20
2023-05-10T06:16:49.993Z,4.00
2023-05-10T06:17:51.980Z,4.47
2023-05-10T06:18:53.587Z,4.10
2023-05-10T06:19:55.340Z,4.13
2023-05-10T06:20:57.066Z,4.13
2023-05-10T06:21:58.712Z,3.92
2023-05-10T06:23:00.447Z,4.20
2023-05-10T06:24:02.149Z,4.15
2023-05-10T06:25:03.849Z,4.20
2023-05-10T06:26:05.452Z,4.00
2023-05-10T06:27:07.488Z,4.45
2023-05-10T06:28:09.904Z,4.07
2023-05-10T06:29:11.506Z,4.10
2023-05-10T06:30:14.528Z,4.00
2023-05-10T06:31:16.995Z,4.32
2023-05-10T06:32:19.082Z,3.95
2023-05-10T06:33:20.641Z,4.00
2023-05-10T06:34:22.280Z,3.63
2023-05-10T06:35:24.256Z,4.40
2023-05-10T06:36:27.454Z,4.30
2023-05-10T06:37:29.511Z,4.07
2023-05-10T06:38:31.288Z,4.13
2023-05-10T06:39:33.262Z,3.97
2023-05-10T06:40:37.540Z,4.20
2023-05-10T06:41:39.489Z,3.97
2023-05-10T06:42:41.130Z,4.00
2023-05-10T06:43:44.511Z,3.60
2023-05-10T06:44:46.618Z,4.32
2023-05-10T06:45:49.594Z,3.70
2023-05-10T06:46:52.187Z,4.07
2023-05-10T06:47:53.942Z,3.65
2023-05-10T06:48:55.607Z,3.95
2023-05-10T06:49:57.251Z,4.10
2023-05-10T06:50:58.933Z,3.53
2023-05-10T06:52:00.650Z,3.50
2023-05-10T06:53:04.060Z,3.90
2023-05-10T06:54:05.773Z,4.13
2023-05-10T06:55:07.973Z,3.53
2023-05-10T06:56:09.896Z,3.90
2023-05-10T06:57:23.299Z,3.95
2023-05-10T06:58:33.637Z,3.78
2023-05-10T06:59:35.399Z,5.10
2023-05-10T07:00:41.461Z,4.18
2023-05-10T07:01:43.746Z,4.13
2023-05-10T07:02:45.595Z,4.30
2023-05-10T07:03:47.588Z,3.95
2023-05-10T07:04:49.896Z,3.75
2023-05-10T07:05:51.628Z,3.78
2023-05-10T07:06:54.203Z,3.72
2023-05-10T07:07:55.811Z,3.95
2023-05-10T07:08:58.189Z,4.40
2023-05-10T07:10:00.183Z,4.10
2023-05-10T07:11:08.393Z,4.00
2023-05-10T07:12:12.769Z,3.90
2023-05-10T07:13:15.898Z,3.30
2023-05-10T07:14:17.663Z,4.15
2023-05-10T07:15:19.807Z,3.72
2023-05-10T07:16:22.664Z,4.00
2023-05-10T07:17:24.979Z,3.72
2023-05-10T07:18:27.792Z,3.35
2023-05-10T07:19:30.447Z,3.75
2023-05-10T07:20:32.825Z,3.63
2023-05-10T07:21:36.332Z,3.92
2023-05-10T07:22:38.192Z,3.80
2023-05-10T07:23:40.109Z,3.10
2023-05-10T07:24:41.869Z,4.18
2023-05-10T07:25:46.936Z,4.32
2023-05-10T07:26:48.659Z,4.07
2023-05-10T07:27:50.254Z,3.75
2023-05-10T07:28:51.817Z,4.38
2023-05-10T07:29:53.512Z,4.38
2023-05-10T07:30:55.215Z,4.07
2023-05-10T07:31:58.814Z,3.95
2023-05-10T07:33:00.657Z,3.75
2023-05-10T07:34:02.330Z,3.83
2023-05-10T07:35:04.448Z,3.60
2023-05-10T07:36:06.398Z,3.70
2023-05-10T07:37:08.507Z,3.50
2023-05-10T07:38:11.999Z,3.40
2023-05-10T07:39:18.688Z,3.65
2023-05-10T07:40:27.956Z,4.22
2023-05-10T07:41:29.859Z,3.90
2023-05-10T07:42:31.547Z,6.97
2023-05-10T07:43:33.129Z,4.40
2023-05-10T07:44:34.862Z,3.53
2023-05-10T07:45:36.696Z,3.78
2023-05-10T07:46:38.601Z,4.43
2023-05-10T07:47:40.200Z,3.65
2023-05-10T07:48:42.406Z,3.63
2023-05-10T07:49:44.488Z,4.00
2023-05-10T07:50:46.436Z,3.80
2023-05-10T07:51:48.199Z,4.07
2023-05-10T07:52:50.144Z,3.95
2023-05-10T07:53:52.031Z,3.65
2023-05-10T07:54:54.579Z,3.63
2023-05-10T07:55:59.581Z,4.40
2023-05-10T07:57:01.593Z,3.40
2023-05-10T07:58:03.598Z,3.50
2023-05-10T07:59:07.483Z,3.80
2023-05-10T08:00:09.703Z,3.55
2023-05-10T08:01:20.702Z,3.63
2023-05-10T08:02:22.529Z,3.97
2023-05-10T08:03:24.290Z,3.55
2023-05-10T08:04:26.083Z,3.70
2023-05-10T08:05:27.983Z,3.45
2023-05-10T08:06:30.883Z,3.58
2023-05-10T08:07:33.360Z,3.50
2023-05-10T08:08:34.926Z,3.78
2023-05-10T08:09:36.888Z,3.40
2023-05-10T08:10:40.941Z,6.63
2023-05-10T08:11:43.058Z,4.72
2023-05-10T08:12:44.803Z,3.60
2023-05-10T08:13:46.518Z,4.00
2023-05-10T08:14:48.155Z,3.50
2023-05-10T08:15:50.090Z,4.25
2023-05-10T08:16:51.731Z,4.13
2023-05-10T08:17:53.574Z,3.92
2023-05-10T08:18:56.401Z,3.58
2023-05-10T08:20:00.607Z,3.17
2023-05-10T08:21:02.219Z,3.47
2023-05-10T08:22:03.827Z,3.38
2023-05-10T08:23:05.432Z,4.32
2023-05-10T08:24:07.642Z,4.10
2023-05-10T08:25:09.429Z,4.38
2023-05-10T08:26:11.557Z,4.13
2023-05-10T08:27:15.932Z,3.67
2023-05-10T08:28:17.663Z,3.70
2023-05-10T08:29:19.450Z,3.88
2023-05-10T08:30:21.105Z,3.20
2023-05-10T08:31:22.848Z,3.55
2023-05-10T08:32:24.698Z,3.92
2023-05-10T08:33:26.662Z,14.60
2023-05-10T08:34:28.482Z,33.97
2023-05-10T08:35:30.078Z,13.50
2023-05-10T08:36:33.100Z,6.90
2023-05-10T08:37:35.114Z,5.43
2023-05-10T08:38:36.864Z,6.78
2023-05-10T08:39:38.567Z,4.72
2023-05-10T08:40:44.972Z,4.05
2023-05-10T08:41:48.985Z,4.10
2023-05-10T08:43:10.122Z,3.70
2023-05-10T08:44:12.261Z,3.08
2023-05-10T08:45:17.012Z,3.78
2023-05-10T08:46:20.718Z,3.40
2023-05-10T08:47:22.764Z,3.53
2023-05-10T08:48:25.858Z,3.38
2023-05-10T08:49:30.416Z,3.80
2023-05-10T08:50:33.107Z,3.47
2023-05-10T08:51:37.839Z,4.00
2023-05-10T08:52:41.356Z,5.20
2023-05-10T08:53:43.065Z,3.75
2023-05-10T08:54:45.212Z,4.25
2023-05-10T08:55:47.529Z,3.83
2023-05-10T08:56:49.991Z,3.60
2023-05-10T08:57:51.817Z,3.72
2023-05-10T08:58:53.657Z,3.67
2023-05-10T08:59:55.352Z,3.45
2023-05-10T09:00:58.032Z,3.80
2023-05-10T09:02:01.559Z,3.28
2023-05-10T09:03:04.784Z,3.28
2023-05-10T09:04:06.634Z,3.63
2023-05-10T09:05:08.911Z,3.70
2023-05-10T09:06:16.801Z,4.07
2023-05-10T09:07:19.844Z,3.70
2023-05-10T09:08:21.873Z,3.38
2023-05-10T09:09:25.481Z,3.55
2023-05-10T09:10:29.204Z,4.13
2023-05-10T09:11:31.051Z,3.80
2023-05-10T09:12:33.372Z,3.30
2023-05-10T09:13:37.094Z,4.00
2023-05-10T09:14:39.849Z,4.35
2023-05-10T09:15:41.794Z,3.92
2023-05-10T09:16:43.733Z,3.90
2023-05-10T09:17:46.536Z,4.10
2023-05-10T09:18:48.609Z,4.10
2023-05-10T09:19:50.381Z,3.83
2023-05-10T09:20:52.407Z,3.35
2023-05-10T09:21:54.055Z,3.53
2023-05-10T09:22:55.787Z,3.95
2023-05-10T09:23:57.616Z,4.68
2023-05-10T09:25:09.331Z,19.17
2023-05-10T09:26:11.338Z,8.60
2023-05-10T09:27:13.416Z,24.58
2023-05-10T09:28:17.811Z,6.32
2023-05-10T09:29:19.676Z,4.03
2023-05-10T09:30:32.742Z,3.75
2023-05-10T09:31:57.880Z,4.20
2023-05-10T09:33:00.872Z,3.90
2023-05-10T09:34:02.858Z,4.32
2023-05-10T09:35:18.859Z,3.90
2023-05-10T09:36:25.397Z,3.58
2023-05-10T09:37:33.107Z,4.20
2023-05-10T09:38:49.654Z,4.03
2023-05-10T09:39:55.335Z,4.40
2023-05-10T09:40:59.268Z,3.20
2023-05-10T09:42:04.843Z,3.35
2023-05-10T09:43:11.849Z,3.92
2023-05-10T09:44:18.913Z,3.42
2023-05-10T09:45:21.472Z,3.60
2023-05-10T09:46:23.653Z,3.65
2023-05-10T09:47:26.414Z,3.30
2023-05-10T09:48:28.281Z,3.30
2023-05-10T09:49:30.584Z,3.60
2023-05-10T09:50:33.597Z,3.70
2023-05-10T09:51:36.929Z,3.92
2023-05-10T09:53:04.753Z,4.07
2023-05-10T09:54:11.778Z,4.32
2023-05-10T09:55:16.716Z,20.30
2023-05-10T09:56:36.634Z,9.52
2023-05-10T09:57:38.811Z,4.13
2023-05-10T09:58:40.558Z,4.00
2023-05-10T09:59:44.314Z,4.00
2023-05-10T10:00:52.703Z,3.95
2023-05-10T10:01:58.305Z,4.47
2023-05-10T10:03:01.095Z,4.05
2023-05-10T10:04:10.707Z,3.60
2023-05-10T10:05:12.847Z,3.80
2023-05-10T10:06:29.602Z,3.67
2023-05-10T10:07:33.070Z,3.80
2023-05-10T10:08:35.386Z,3.65
2023-05-10T10:09:36.979Z,3.47
2023-05-10T10:10:41.052Z,3.67
2023-05-10T10:11:42.830Z,4.40
2023-05-10T10:12:45.542Z,4.28
2023-05-10T10:13:47.537Z,3.75
2023-05-10T10:14:51.286Z,3.50
2023-05-10T10:15:55.264Z,3.50
2023-05-10T10:17:07.577Z,3.45
2023-05-10T10:18:14.037Z,3.60
2023-05-10T10:19:16.567Z,3.35
2023-05-10T10:20:20.346Z,3.65
2023-05-10T10:21:23.360Z,3.92
2023-05-10T10:22:25.274Z,3.90
2023-05-10T10:23:28.413Z,3.40
2023-05-10T10:24:30.011Z,3.85
2023-05-10T10:25:32.814Z,3.50
2023-05-10T10:26:39.014Z,3.45
2023-05-10T10:27:46.214Z,8.68
2023-05-10T10:29:11.654Z,4.63
2023-05-10T10:30:49.512Z,3.85
2023-05-10T10:32:01.148Z,16.88
2023-05-10T10:34:30.925Z,15.80
2023-05-10T10:35:33.975Z,12.02
2023-05-10T10:36:47.103Z,6.63
2023-05-10T10:37:51.379Z,4.82
2023-05-10T10:38:53.883Z,3.65
2023-05-10T10:39:56.405Z,3.47
2023-05-10T10:41:10.536Z,3.72
2023-05-10T10:42:12.491Z,3.70
2023-05-10T10:43:28.486Z,3.53
2023-05-10T10:44:35.756Z,3.20
2023-05-10T10:45:41.962Z,3.22
2023-05-10T10:46:59.768Z,2.95
2023-05-10T10:48:22.911Z,3.33
2023-05-10T10:49:24.697Z,3.70
2023-05-10T10:50:26.629Z,3.40
2023-05-10T10:51:30.211Z,5.35
2023-05-10T10:52:34.726Z,25.27
2023-05-10T10:53:38.105Z,26.58
2023-05-10T10:54:40.028Z,9.75
2023-05-10T10:55:48.641Z,6.93
2023-05-10T10:57:15.831Z,5.38
2023-05-10T10:58:32.497Z,4.43
2023-05-10T10:59:34.103Z,4.32
2023-05-10T11:00:41.869Z,8.15
2023-05-10T11:01:45.550Z,27.42
2023-05-10T11:02:54.991Z,18.67
2023-05-10T11:03:59.837Z,9.77
2023-05-10T11:05:21.495Z,6.22
2023-05-10T11:06:35.147Z,4.88
2023-05-10T11:07:36.950Z,4.13
2023-05-10T11:08:45.164Z,4.40
2023-05-10T11:09:48.990Z,4.13
2023-05-10T11:10:53.985Z,4.28
2023-05-10T11:11:59.710Z,4.20
2023-05-10T11:13:11.131Z,3.95
2023-05-10T11:14:12.829Z,4.20
2023-05-10T11:15:14.893Z,3.97
2023-05-10T11:16:17.931Z,3.90
2023-05-10T11:17:30.240Z,4.18
2023-05-10T11:18:31.940Z,4.07
2023-05-10T11:19:34.936Z,4.00
2023-05-10T11:20:40.775Z,4.30
2023-05-10T11:21:48.792Z,4.53
2023-05-10T11:22:54.967Z,4.30
2023-05-10T11:23:58.553Z,4.18
2023-05-10T11:25:00.760Z,4.57
2023-05-10T11:26:02.690Z,4.85
2023-05-10T11:27:04.532Z,4.82
2023-05-10T11:28:06.495Z,4.30
2023-05-10T11:29:08.598Z,4.57
2023-05-10T11:30:13.851Z,4.90
2023-05-10T11:31:16.960Z,4.35
2023-05-10T11:32:20.807Z,4.60
2023-05-10T11:33:22.577Z,4.68
2023-05-10T11:34:36.087Z,4.95
2023-05-10T11:35:43.440Z,5.93
2023-05-10T11:36:52.784Z,5.95
2023-05-10T11:37:54.689Z,5.30
2023-05-10T11:38:57.841Z,5.38
2023-05-10T11:39:59.761Z,5.38
2023-05-10T11:41:01.335Z,5.88
2023-05-10T11:42:03.013Z,5.28
2023-05-10T11:43:05.613Z,5.38
2023-05-10T11:44:10.466Z,5.40
2023-05-10T11:45:12.318Z,5.72
2023-05-10T11:46:14.915Z,5.40
2023-05-10T11:47:16.666Z,5.32
2023-05-10T11:48:23.297Z,5.95
2023-05-10T11:49:26.968Z,5.63
2023-05-10T11:50:29.273Z,5.78
2023-05-10T11:51:34.826Z,5.18
2023-05-10T11:52:38.674Z,5.70
2023-05-10T11:53:40.551Z,6.32
2023-05-10T11:54:55.762Z,6.30
2023-05-10T11:56:06.845Z,6.18
2023-05-10T11:57:08.641Z,5.90
2023-05-10T11:58:10.367Z,5.50
2023-05-10T11:59:15.038Z,5.85
2023-05-10T12:00:17.085Z,5.63
2023-05-10T12:01:19.084Z,5.63
2023-05-10T12:02:20.927Z,5.50
2023-05-10T12:03:22.769Z,6.00
2023-05-10T12:04:24.876Z,6.07
2023-05-10T12:05:26.918Z,6.50
2023-05-10T12:06:32.150Z,6.00
2023-05-10T12:07:34.167Z,6.47
2023-05-10T12:08:35.768Z,6.28
2023-05-10T12:09:43.901Z,6.03
2023-05-10T12:10:46.030Z,6.95
2023-05-10T12:11:47.743Z,7.15
2023-05-10T12:12:52.827Z,5.88
2023-05-10T12:13:55.319Z,6.22
2023-05-10T12:14:56.857Z,6.45
2023-05-10T12:15:59.218Z,6.45
2023-05-10T12:17:00.851Z,6.70
2023-05-10T12:18:03.763Z,6.35
2023-05-10T12:19:06.459Z,6.90
2023-05-10T12:20:22.410Z,6.25
2023-05-10T12:21:24.639Z,6.00
2023-05-10T12:22:26.544Z,5.63
2023-05-10T12:23:28.598Z,5.75
2023-05-10T12:24:30.211Z,6.22
2023-05-10T12:25:36.794Z,6.18
2023-05-10T12:26:38.497Z,7.05
2023-05-10T12:27:40.179Z,6.40
2023-05-10T12:28:42.102Z,5.75
2023-05-10T12:29:47.553Z,5.82
2023-05-10T12:30:49.266Z,6.00
2023-05-10T12:31:54.946Z,5.47
2023-05-10T12:33:08.740Z,6.50
2023-05-10T12:34:10.467Z,6.90
2023-05-10T12:35:12.546Z,6.00
2023-05-10T12:36:15.492Z,6.60
2023-05-10T12:37:17.072Z,7.68
2023-05-10T12:38:36.041Z,7.05
2023-05-10T12:39:47.409Z,6.63
2023-05-10T12:40:49.161Z,6.43
2023-05-10T12:41:51.376Z,6.78
2023-05-10T12:42:53.575Z,5.68
2023-05-10T12:43:55.166Z,5.55
2023-05-10T12:44:59.648Z,6.53
2023-05-10T12:46:15.382Z,6.20
2023-05-10T12:47:16.989Z,6.53
2023-05-10T12:48:18.917Z,7.22
2023-05-10T12:49:20.572Z,6.95
2023-05-10T12:50:22.160Z,6.07
2023-05-10T12:51:23.899Z,7.03
2023-05-10T12:52:26.468Z,6.90
2023-05-10T12:53:28.474Z,7.22
2023-05-10T12:54:30.122Z,6.80
2023-05-10T12:55:31.765Z,6.75
2023-05-10T12:56:33.549Z,6.40
2023-05-10T12:57:35.077Z,6.47
2023-05-10T12:58:36.819Z,6.47
2023-05-10T12:59:38.733Z,6.22
2023-05-10T13:00:40.468Z,6.30
2023-05-10T13:01:42.123Z,6.90
2023-05-10T13:02:44.153Z,5.75
2023-05-10T13:03:45.832Z,5.70
2023-05-10T13:04:50.799Z,5.82
2023-05-10T13:05:52.797Z,5.65
2023-05-10T13:06:59.548Z,5.90
2023-05-10T13:08:01.299Z,5.70
2023-05-10T13:09:03.570Z,5.57
2023-05-10T13:10:07.086Z,5.90
2023-05-10T13:11:08.892Z,6.40
2023-05-10T13:12:10.509Z,6.32
2023-05-10T13:13:12.143Z,5.60
2023-05-10T13:14:14.456Z,5.22
2023-05-10T13:15:16.051Z,6.35
2023-05-10T13:16:17.758Z,5.45
2023-05-10T13:17:19.711Z,5.93
2023-05-10T13:18:21.474Z,5.72
2023-05-10T13:19:23.114Z,5.80
2023-05-10T13:20:25.731Z,5.65
2023-05-10T13:21:27.656Z,5.63
2023-05-10T13:22:39.858Z,5.95
2023-05-10T13:23:42.318Z,5.50
2023-05-10T13:24:44.220Z,5.82
2023-05-10T13:25:46.054Z,5.88
2023-05-10T13:26:47.660Z,6.30
2023-05-10T13:27:49.524Z,5.35
2023-05-10T13:28:52.715Z,5.03
2023-05-10T13:29:55.751Z,5.70
2023-05-10T13:30:57.416Z,5.82
2023-05-10T13:32:00.965Z,5.45
2023-05-10T13:33:02.668Z,5.15
2023-05-10T13:34:04.880Z,5.40
2023-05-10T13:35:06.989Z,5.82
2023-05-10T13:36:11.284Z,5.10
2023-05-10T13:37:12.935Z,6.13
2023-05-10T13:38:14.894Z,5.65
2023-05-10T13:39:16.629Z,5.93
2023-05-10T13:40:18.587Z,5.57
2023-05-10T13:41:20.399Z,5.55
2023-05-10T13:42:24.576Z,5.35
2023-05-10T13:43:26.189Z,6.43
2023-05-10T13:44:27.815Z,5.85
2023-05-10T13:45:29.664Z,5.38
2023-05-10T13:46:31.826Z,4.82
2023-05-10T13:47:33.630Z,4.90
2023-05-10T13:48:37.517Z,5.07
2023-05-10T13:49:40.379Z,4.88
2023-05-10T13:50:41.985Z,5.13
2023-05-10T13:51:44.456Z,4.93
2023-05-10T13:52:46.322Z,4.40
2023-05-10T13:53:48.606Z,4.43
2023-05-10T13:54:50.643Z,5.32
2023-05-10T13:55:52.366Z,4.82
2023-05-10T13:56:54.205Z,5.13
2023-05-10T13:57:55.783Z,5.05
2023-05-10T13:58:59.196Z,5.03
2023-05-10T14:00:01.438Z,4.25
2023-05-10T14:01:09.669Z,4.05
2023-05-10T14:02:13.912Z,4.40
2023-05-10T14:03:15.913Z,4.25
2023-05-10T14:04:17.813Z,4.00
2023-05-10T14:05:22.350Z,3.97
2023-05-10T14:06:28.669Z,3.28
2023-05-10T14:07:30.696Z,3.17
2023-05-10T14:08:32.476Z,3.30
2023-05-10T14:09:34.586Z,2.97
2023-05-10T14:10:37.954Z,3.33
2023-05-10T14:11:43.954Z,3.90
2023-05-10T14:12:45.640Z,3.92
2023-05-10T14:13:47.188Z,3.40